Time,TemperatureF,DewpointF,PressureIn,WindDirection,WindDirectionDegrees,WindSpeedMPH,WindSpeedGustMPH,Humidity,HourlyPrecipIn,Conditions,Clouds,dailyrainin,SoftwareType,DateUTC
2016-08-24 00:40:00,51.0,43.0,-100.00,SSW,196,2.0,4.0,73,-99.99,,,-99.99,,2016-08-24 06:40:00,
2016-08-24 00:47:00,51.0,43.0,-100.00,SSW,196,2.0,4.0,73,-99.99,,,-99.99,,2016-08-24 06:47:00,
2016-08-24 00:59:00,51.0,43.0,-100.00,SSW,196,2.0,4.0,73,-99.99,,,-99.99,,2016-08-24 06:59:00,
2016-08-24 01:04:00,51.0,43.0,-100.00,SSW,196,2.0,4.0,73,-99.99,,,-99.99,,2016-08-24 07:04:00,
2016-08-24 01:13:00,51.0,43.0,-100.00,SSW,196,2.0,4.0,73,-99.99,,,-99.99,,2016-08-24 07:13:00,
2016-08-24 01:37:00,49.0,42.0,-100.00,SE,146,2.0,5.0,76,-99.99,,,-99.99,,2016-08-24 07:37:00,
2016-08-24 01:51:00,49.0,42.0,-100.00,SE,146,2.0,5.0,76,-99.99,,,-99.99,,2016-08-24 07:51:00,
2016-08-24 01:56:00,49.0,42.0,-100.00,SE,146,2.0,5.0,76,-99.99,,,-99.99,,2016-08-24 07:56:00,
2016-08-24 02:03:00,49.0,42.0,-100.00,SE,146,2.0,5.0,76,-99.99,,,-99.99,,2016-08-24 08:03:00,
2016-08-24 02:13:00,49.0,42.0,-100.00,SE,146,2.0,5.0,76,-99.99,,,-99.99,,2016-08-24 08:13:00,
2016-08-24 02:34:00,47.0,41.0,-100.00,SSE,158,2.0,5.0,80,-99.99,,,-99.99,,2016-08-24 08:34:00,
2016-08-24 02:46:00,47.0,41.0,-100.00,SSE,158,2.0,5.0,80,-99.99,,,-99.99,,2016-08-24 08:46:00,
2016-08-24 02:54:00,47.0,41.0,-100.00,SSE,158,2.0,5.0,80,-99.99,,,-99.99,,2016-08-24 08:54:00,
2016-08-24 03:03:00,47.0,41.0,-100.00,SSE,158,2.0,5.0,80,-99.99,,,-99.99,,2016-08-24 09:03:00,
2016-08-24 03:12:00,47.0,41.0,-100.00,SSE,158,2.0,5.0,80,-99.99,,,-99.99,,2016-08-24 09:12:00,
2016-08-24 03:34:00,49.0,43.0,-100.00,South,182,4.0,-999.0,79,-99.99,,,-99.99,,2016-08-24 09:34:00,
2016-08-24 03:44:00,49.0,43.0,-100.00,South,182,4.0,7.0,79,-99.99,,,-99.99,,2016-08-24 09:44:00,
2016-08-24 03:56:00,49.0,43.0,-100.00,South,182,4.0,7.0,79,-99.99,,,-99.99,,2016-08-24 09:56:00,
2016-08-24 04:03:00,49.0,43.0,-100.00,South,182,4.0,7.0,79,-99.99,,,-99.99,,2016-08-24 10:03:00,
2016-08-24 04:13:00,49.0,43.0,-100.00,South,182,4.0,7.0,79,-99.99,,,-99.99,,2016-08-24 10:13:00,
2016-08-24 04:34:00,47.0,41.0,-100.00,South,186,4.0,7.0,80,-99.99,,,-99.99,,2016-08-24 10:34:00,
2016-08-24 04:44:00,47.0,41.0,-100.00,South,186,4.0,7.0,80,-99.99,,,-99.99,,2016-08-24 10:44:00,
2016-08-24 04:57:00,47.0,41.0,-100.00,South,186,4.0,-999.0,80,-99.99,,,-99.99,,2016-08-24 10:57:00,
2016-08-24 05:05:00,47.0,41.0,-100.00,South,186,4.0,7.0,80,-99.99,,,-99.99,,2016-08-24 11:05:00,
2016-08-24 05:13:00,47.0,41.0,-100.00,South,186,4.0,7.0,80,-99.99,,,-99.99,,2016-08-24 11:13:00,
2016-08-24 05:39:00,45.0,40.0,-100.00,SSW,211,2.0,5.0,82,-99.99,,,-99.99,,2016-08-24 11:39:00,
2016-08-24 05:47:00,45.0,40.0,-100.00,SSW,211,2.0,5.0,82,-99.99,,,-99.99,,2016-08-24 11:47:00,
2016-08-24 05:57:00,45.0,40.0,-100.00,SSW,211,2.0,5.0,82,-99.99,,,-99.99,,2016-08-24 11:57:00,
2016-08-24 06:05:00,45.0,40.0,-100.00,SSW,211,2.0,5.0,82,-99.99,,,-99.99,,2016-08-24 12:05:00,
2016-08-24 06:13:00,45.0,40.0,-100.00,SSW,211,2.0,5.0,82,-99.99,,,-99.99,,2016-08-24 12:13:00,
2016-08-24 06:36:00,43.0,39.0,-100.00,SSE,163,3.0,5.0,85,-99.99,,,-99.99,,2016-08-24 12:36:00,
2016-08-24 06:48:00,43.0,39.0,-100.00,SSE,163,3.0,5.0,85,-99.99,,,-99.99,,2016-08-24 12:48:00,
2016-08-24 06:58:00,43.0,39.0,-100.00,SSE,163,3.0,5.0,85,-99.99,,,-99.99,,2016-08-24 12:58:00,
2016-08-24 07:04:00,43.0,39.0,-100.00,SSE,163,3.0,5.0,85,-99.99,,,-99.99,,2016-08-24 13:04:00,
2016-08-24 07:13:00,43.0,39.0,-100.00,SSE,163,3.0,5.0,85,-99.99,,,-99.99,,2016-08-24 13:13:00,
2016-08-24 07:36:00,42.0,39.0,-100.00,SSE,148,3.0,6.0,89,-99.99,,,-99.99,,2016-08-24 13:36:00,
2016-08-24 07:57:00,42.0,39.0,-100.00,SSE,148,3.0,6.0,89,-99.99,,,-99.99,,2016-08-24 13:57:00,
2016-08-24 08:03:00,42.0,39.0,-100.00,SSE,148,3.0,6.0,89,-99.99,,,-99.99,,2016-08-24 14:03:00,
2016-08-24 08:13:00,42.0,39.0,-100.00,SSE,148,3.0,6.0,89,-99.99,,,-99.99,,2016-08-24 14:13:00,
2016-08-24 08:34:00,48.0,43.0,-100.00,South,183,3.0,5.0,82,-99.99,,,-99.99,,2016-08-24 14:34:00,
2016-08-24 08:45:00,48.0,43.0,-100.00,South,183,3.0,5.0,82,-99.99,,,-99.99,,2016-08-24 14:45:00,
2016-08-24 08:54:00,48.0,43.0,-100.00,South,183,3.0,5.0,82,-99.99,,,-99.99,,2016-08-24 14:54:00,
2016-08-24 09:03:00,48.0,43.0,-100.00,South,183,3.0,5.0,82,-99.99,,,-99.99,,2016-08-24 15:03:00,
2016-08-24 09:12:00,48.0,43.0,-100.00,South,183,3.0,5.0,82,-99.99,,,-99.99,,2016-08-24 15:12:00,
2016-08-24 09:35:00,55.0,43.0,-100.00,SSW,208,3.0,6.0,63,-99.99,,,-99.99,,2016-08-24 15:35:00,
2016-08-24 09:54:00,55.0,43.0,-100.00,SSW,208,3.0,6.0,63,-99.99,,,-99.99,,2016-08-24 15:54:00,
2016-08-24 10:05:00,55.0,43.0,-100.00,SSW,208,3.0,6.0,63,-99.99,,,-99.99,,2016-08-24 16:05:00,